Maryland METAR Reports


Distance/Direction noted is from Ellicott City, MD as the crow flies

KCBE - Cumberland - 118 miles WNW
Updated: Wed, 09/17/2014 7:14 PM
Clear
Clear
 Wind from NNE
Wind: NNE 5 mph
Temperature: 68°F
Dew Point: 46°F
Humidity: 46%
Barometer: 29.99 inHg
Clouds: Clear
Visibility: 10 miles
2014/09/17 23:14 KCBE 172314Z AUTO 03004KT 10SM CLR 20/08 A2999 RMK AO1
KHGR - Hagerstown - 57 miles NW
Updated: Wed, 09/17/2014 6:53 PM
Clear
Clear
 Wind from ESE
Wind: ESE 5 mph
Temperature: 70°F
Dew Point: 46°F
Humidity: 43%
Barometer: 29.97 inHg
Clouds: Clear
Visibility: 10 miles
2014/09/17 22:53 KHGR 172253Z 12004KT 10SM CLR 21/08 A2997 RMK AO2 SLP156 T02060078
 
KFDK - Frederick - 34 miles NW
Updated: Wed, 09/17/2014 6:45 PM
Clear
Clear
 Wind from calm
Wind: Calm
Temperature: 73°F
Dew Point: 52°F
Humidity: 47%
Barometer: 29.99 inHg
Clouds: Clear
Visibility: 10 miles
2014/09/17 22:45 KFDK 172245Z 00000KT 10SM SKC 23/11 A2999
KGAI - Gaithersburg - 26 miles SW
Updated: Wed, 09/17/2014 7:15 PM
Clear
Clear
 Wind from calm
Wind: Calm
Temperature: 64°F
Dew Point: 52°F
Humidity: 64%
Barometer: 30.01 inHg
Clouds: Clear
Visibility: 10 miles
2014/09/17 23:15 KGAI 172315Z AUTO 00000KT 10SM CLR 18/11 A3001 RMK AO1
 
KBWI - BWI Airport - 15 miles SE
Updated: Wed, 09/17/2014 6:54 PM
Partly Cloudy
Partly Cloudy
 Wind from calm
Wind: Calm
Temperature: 66°F
Dew Point: 54°F
Humidity: 64%
Barometer: 29.97 inHg
Clouds: Partly Cloudy
Visibility: 10 miles
Cloud Details: Few Clouds 6500 ft
Partly Cloudy 25000 ft
2014/09/17 22:54 KBWI 172254Z 00000KT 10SM FEW065 SCT250 19/12 A2997 RMK AO2 SLP148 T01890117
KNAK - Annapolis - 32 miles SSE
Updated: Wed, 09/17/2014 6:54 PM
Clear
Clear
 Wind from E
Wind: E 5 mph
Temperature: 70°F
Dew Point: 50°F
Humidity: 50%
Barometer: 29.97 inHg
Clouds: Clear
Visibility: 10 miles
2014/09/17 22:54 KNAK 172254Z AUTO 08004KT 10SM CLR 21/10 A2997 RMK AO2 SLP150 T02110100 $
 
KESN - Easton - 63 miles SE
Updated: Wed, 09/17/2014 6:55 PM
Clear
Clear
 Wind from calm
Wind: Calm
Temperature: 70°F
Dew Point: 54°F
Humidity: 57%
Barometer: 30.01 inHg
Clouds: Clear
Visibility: 10 miles
2014/09/17 22:55 KESN 172255Z 00000KT 10SM SKC 21/12 A3001
KSBY - Salisbury - 112 miles SE
Updated: Wed, 09/17/2014 6:54 PM
Clear
Clear
 Wind from ESE
Wind: ESE 5 mph
Temperature: 68°F
Dew Point: 54°F
Humidity: 60%
Barometer: 29.97 inHg
Clouds: Clear
Visibility: 10 miles
2014/09/17 22:54 KSBY 172254Z 12004KT 10SM CLR 20/12 A2997 RMK AO2 SLP152 T02000117 $